createdAt,value
2019-02-11T00:01:18.410Z,73.77
2019-02-11T00:04:24.282Z,79.23
2019-02-11T00:07:30.068Z,70.97
2019-02-11T00:10:35.862Z,71.23
2019-02-11T00:13:41.635Z,68.20
2019-02-11T00:16:47.487Z,61.07
2019-02-11T00:19:53.269Z,64.60
2019-02-11T00:22:59.097Z,71.47
2019-02-11T00:26:04.855Z,66.97
2019-02-11T00:29:10.639Z,65.23
2019-02-11T00:32:16.423Z,62.93
2019-02-11T00:35:22.197Z,60.20
2019-02-11T00:38:28.002Z,56.57
2019-02-11T00:41:33.796Z,58.43
2019-02-11T00:44:39.582Z,57.40
2019-02-11T00:47:45.329Z,59.77
2019-02-11T00:50:51.135Z,57.63
2019-02-11T00:53:56.909Z,59.63
2019-02-11T00:57:02.685Z,60.20
2019-02-11T01:00:10.593Z,61.83
2019-02-11T01:03:16.372Z,63.17
2019-02-11T01:06:22.176Z,62.20
2019-02-11T01:09:27.925Z,61.63
2019-02-11T01:12:33.718Z,64.40
2019-02-11T01:15:39.480Z,64.97
2019-02-11T01:18:45.254Z,61.63
2019-02-11T01:21:51.012Z,62.73
2019-02-11T01:24:56.798Z,57.70
2019-02-11T01:28:02.555Z,53.83
2019-02-11T01:31:08.322Z,54.40
2019-02-11T01:34:14.059Z,55.23
2019-02-11T01:37:19.841Z,53.13
2019-02-11T01:40:25.598Z,51.03
2019-02-11T01:43:36.138Z,51.13
2019-02-11T01:46:38.789Z,54.37
2019-02-11T01:49:44.682Z,51.50
2019-02-11T01:52:50.444Z,58.47
2019-02-11T01:55:56.213Z,63.03
2019-02-11T01:59:01.976Z,68.53
2019-02-11T02:02:07.763Z,71.20
2019-02-11T02:05:13.599Z,69.20
2019-02-11T02:08:19.447Z,67.13
2019-02-11T02:11:25.202Z,65.03
2019-02-11T02:14:31.132Z,66.30
2019-02-11T02:17:36.904Z,67.63
2019-02-11T02:20:42.730Z,66.23
2019-02-11T02:23:48.492Z,66.70
2019-02-11T02:26:54.256Z,68.67
2019-02-11T02:30:00.035Z,74.90
2019-02-11T02:33:05.939Z,77.47
2019-02-11T02:36:11.730Z,83.40
2019-02-11T02:39:17.507Z,80.63
2019-02-11T02:42:23.273Z,76.97
2019-02-11T02:45:29.256Z,76.27
2019-02-11T02:48:35.009Z,71.57
2019-02-11T02:51:40.777Z,83.77
2019-02-11T02:54:46.861Z,65.43
2019-02-11T02:57:52.672Z,66.83
2019-02-11T03:00:58.450Z,68.63
2019-02-11T03:04:04.218Z,70.00
2019-02-11T03:07:09.979Z,68.50
2019-02-11T03:10:15.915Z,69.20
2019-02-11T03:13:21.649Z,67.93
2019-02-11T03:16:27.422Z,59.77
2019-02-11T03:19:33.179Z,63.30
2019-02-11T03:22:38.973Z,64.57
2019-02-11T03:25:44.727Z,58.63
2019-02-11T03:28:50.483Z,61.07
2019-02-11T03:31:59.736Z,59.33
2019-02-11T03:35:03.705Z,56.97
2019-02-11T03:38:09.461Z,57.53
2019-02-11T03:41:15.258Z,57.00
2019-02-11T03:44:21.049Z,52.43
2019-02-11T03:47:26.874Z,54.47
2019-02-11T03:50:32.637Z,51.93
2019-02-11T03:53:38.404Z,52.17
2019-02-11T03:56:44.357Z,54.27
2019-02-11T03:59:50.237Z,54.50
2019-02-11T04:02:56.309Z,60.73
2019-02-11T04:06:02.058Z,56.93
2019-02-11T04:09:08.412Z,57.27
2019-02-11T04:12:14.187Z,59.93
2019-02-11T04:15:19.971Z,58.17
2019-02-11T04:18:25.773Z,60.33
2019-02-11T04:21:31.542Z,58.50
2019-02-11T04:24:37.502Z,58.27
2019-02-11T04:27:43.255Z,66.87
2019-02-11T04:30:49.060Z,66.60
2019-02-11T04:33:54.881Z,67.40
2019-02-11T04:37:00.636Z,80.50
2019-02-11T04:40:07.325Z,68.53
2019-02-11T04:43:13.110Z,64.23
2019-02-11T04:46:18.879Z,65.33
2019-02-11T04:49:24.646Z,67.20
2019-02-11T04:52:30.406Z,63.63
2019-02-11T04:55:36.210Z,72.30
2019-02-11T04:58:41.964Z,70.53
2019-02-11T05:01:47.715Z,65.13
2019-02-11T05:04:53.483Z,65.47
2019-02-11T05:07:59.270Z,63.67
2019-02-11T05:11:05.145Z,72.30
2019-02-11T05:14:10.914Z,71.27
2019-02-11T05:17:16.683Z,77.20
2019-02-11T05:20:22.526Z,85.17
2019-02-11T05:23:28.284Z,122.43
2019-02-11T05:26:34.057Z,167.73
2019-02-11T05:29:39.821Z,184.53
2019-02-11T05:32:45.626Z,171.23
2019-02-11T05:35:51.377Z,129.37
2019-02-11T05:38:57.231Z,129.20
2019-02-11T05:42:02.995Z,117.63
2019-02-11T05:45:09.014Z,105.47
2019-02-11T05:48:14.771Z,101.90
2019-02-11T05:51:20.554Z,160.13
2019-02-11T05:54:26.319Z,145.53
2019-02-11T05:57:32.124Z,136.10
2019-02-11T06:00:37.890Z,112.43
2019-02-11T06:03:43.660Z,88.97
2019-02-11T06:06:49.442Z,85.40
2019-02-11T06:09:55.203Z,85.80
2019-02-11T06:13:00.955Z,85.67
2019-02-11T06:16:06.752Z,85.23
2019-02-11T06:19:12.479Z,84.20
2019-02-11T06:22:18.233Z,82.63
2019-02-11T06:25:23.994Z,81.67
2019-02-11T06:28:29.770Z,84.03
2019-02-11T06:31:35.645Z,83.57
2019-02-11T06:34:41.611Z,82.07
2019-02-11T06:37:47.382Z,87.63
2019-02-11T06:40:53.181Z,92.20
2019-02-11T06:43:58.938Z,92.80
2019-02-11T06:47:04.705Z,92.53
2019-02-11T06:50:11.456Z,83.07
2019-02-11T06:53:18.259Z,80.87
2019-02-11T06:56:24.044Z,80.97
2019-02-11T06:59:31.043Z,78.73
2019-02-11T07:02:36.804Z,80.03
2019-02-11T07:05:42.610Z,77.00
2019-02-11T07:08:48.381Z,80.33
2019-02-11T07:11:54.151Z,84.20
2019-02-11T07:14:59.910Z,89.03
2019-02-11T07:18:05.702Z,91.10
2019-02-11T07:21:11.478Z,85.43
2019-02-11T07:24:17.309Z,86.13
2019-02-11T07:27:23.222Z,89.90
2019-02-11T07:30:29.041Z,87.77
2019-02-11T07:33:34.936Z,87.87
2019-02-11T07:36:40.717Z,97.53
2019-02-11T07:39:46.508Z,102.40
2019-02-11T07:42:57.538Z,107.93
2019-02-11T07:46:31.515Z,104.90
2019-02-11T07:49:37.439Z,105.30
2019-02-11T07:52:43.309Z,98.60
2019-02-11T07:55:49.119Z,100.37
2019-02-11T07:58:54.906Z,102.57
2019-02-11T08:02:00.687Z,95.93
2019-02-11T08:05:07.039Z,97.70
2019-02-11T08:08:12.873Z,97.10
2019-02-11T08:11:18.770Z,94.97
2019-02-11T08:14:24.730Z,92.57
2019-02-11T08:17:30.647Z,84.07
2019-02-11T08:20:36.721Z,82.57
2019-02-11T08:23:42.562Z,82.10
2019-02-11T08:26:48.376Z,81.60
2019-02-11T08:29:55.161Z,79.80
2019-02-11T08:33:01.014Z,73.77
2019-02-11T08:36:06.803Z,72.10
2019-02-11T08:39:12.832Z,68.80
2019-02-11T08:42:18.609Z,64.90
2019-02-11T08:45:24.403Z,62.30
2019-02-11T08:48:30.205Z,62.87
2019-02-11T08:51:36.035Z,64.00
2019-02-11T08:54:41.847Z,62.47
2019-02-11T08:57:47.714Z,64.50
2019-02-11T09:00:53.615Z,64.80
2019-02-11T09:03:59.495Z,63.73
2019-02-11T09:07:05.361Z,61.67
2019-02-11T09:10:11.835Z,62.97
2019-02-11T09:13:18.728Z,64.77
2019-02-11T09:16:24.707Z,64.67
2019-02-11T09:19:30.531Z,63.97
2019-02-11T09:22:36.317Z,64.27
2019-02-11T09:25:42.149Z,69.20
2019-02-11T09:28:49.080Z,75.97
2019-02-11T09:31:54.861Z,69.93
2019-02-11T09:35:00.644Z,69.93
2019-02-11T09:38:06.590Z,70.07
2019-02-11T09:41:12.487Z,72.30
2019-02-11T09:44:18.420Z,71.57
2019-02-11T09:47:24.204Z,73.20
2019-02-11T09:50:39.859Z,69.00
2019-02-11T09:53:45.782Z,72.93
2019-02-11T09:56:51.670Z,78.67
2019-02-11T09:59:57.524Z,79.97
2019-02-11T10:03:03.585Z,80.60
2019-02-11T10:06:09.359Z,80.03
2019-02-11T10:09:15.250Z,80.17
2019-02-11T10:12:21.553Z,83.07
2019-02-11T10:15:27.495Z,79.67
2019-02-11T10:18:33.277Z,77.17
2019-02-11T10:21:39.160Z,72.07
2019-02-11T10:24:44.984Z,69.43
2019-02-11T10:27:50.756Z,60.90
2019-02-11T10:30:57.061Z,59.37
2019-02-11T10:34:03.878Z,58.13
2019-02-11T10:37:09.833Z,56.10
2019-02-11T10:40:15.974Z,53.23
2019-02-11T10:43:21.900Z,54.47
2019-02-11T10:46:27.866Z,51.87
2019-02-11T10:49:33.639Z,54.00
2019-02-11T10:52:40.426Z,52.17
2019-02-11T10:55:46.385Z,51.87
2019-02-11T10:58:52.238Z,55.47
2019-02-11T11:01:58.161Z,47.00
2019-02-11T11:05:04.115Z,50.30
2019-02-11T11:08:10.093Z,48.93
2019-02-11T11:11:16.007Z,43.20
2019-02-11T11:14:21.898Z,40.93
2019-02-11T11:17:27.823Z,43.80
2019-02-11T11:20:33.816Z,51.97
2019-02-11T11:23:39.604Z,52.40
2019-02-11T11:26:45.461Z,46.93
2019-02-11T11:29:51.242Z,42.17
2019-02-11T11:32:57.065Z,41.63
2019-02-11T11:36:02.873Z,43.20
2019-02-11T11:39:18.322Z,40.90
2019-02-11T11:42:24.173Z,45.23
2019-02-11T11:45:30.005Z,42.27
2019-02-11T11:48:36.099Z,40.20
2019-02-11T11:51:41.880Z,38.67
2019-02-11T11:54:47.678Z,38.40
2019-02-11T11:57:53.574Z,38.73
2019-02-11T12:00:59.533Z,40.73
2019-02-11T12:04:06.676Z,40.67
2019-02-11T12:07:12.821Z,40.43
2019-02-11T12:10:20.124Z,40.90
2019-02-11T12:13:27.792Z,40.53
2019-02-11T12:16:34.697Z,38.67
2019-02-11T12:19:40.491Z,38.23
2019-02-11T12:22:46.812Z,38.23
2019-02-11T12:25:52.636Z,38.37
2019-02-11T12:28:58.437Z,36.67
2019-02-11T12:32:05.828Z,34.70
2019-02-11T12:35:12.607Z,36.63
2019-02-11T12:38:18.435Z,37.20
2019-02-11T12:41:24.334Z,37.63
2019-02-11T12:44:30.183Z,36.67
2019-02-11T12:47:35.970Z,36.60
2019-02-11T12:50:41.889Z,34.67
2019-02-11T12:53:48.076Z,36.20
2019-02-11T12:56:53.854Z,31.87
2019-02-11T12:59:59.656Z,33.40
2019-02-11T13:03:06.010Z,32.03
2019-02-11T13:06:11.832Z,32.67
2019-02-11T13:09:17.698Z,31.10
2019-02-11T13:12:23.563Z,32.57
2019-02-11T13:15:56.368Z,35.93
2019-02-11T13:18:39.400Z,37.40
2019-02-11T13:21:44.632Z,35.10
2019-02-11T13:24:50.404Z,34.90
2019-02-11T13:27:56.215Z,33.73
2019-02-11T13:31:02.217Z,50.73
2019-02-11T13:34:08.064Z,35.63
2019-02-11T13:37:13.977Z,32.80
2019-02-11T13:40:19.891Z,30.80
2019-02-11T13:43:25.763Z,30.60
2019-02-11T13:46:31.565Z,39.83
2019-02-11T13:49:37.346Z,37.67
2019-02-11T13:52:43.211Z,36.47
2019-02-11T13:55:49.287Z,32.10
2019-02-11T13:58:55.287Z,32.27
2019-02-11T14:02:01.136Z,36.13
2019-02-11T14:05:07.518Z,32.90
2019-02-11T14:08:13.795Z,32.97
2019-02-11T14:11:19.577Z,34.17
2019-02-11T14:14:31.796Z,34.07
2019-02-11T14:17:37.709Z,36.10
2019-02-11T14:20:44.048Z,37.40
2019-02-11T14:23:50.039Z,37.70
2019-02-11T14:26:55.817Z,37.07
2019-02-11T14:30:01.623Z,38.13
2019-02-11T14:33:08.260Z,36.97
2019-02-11T14:36:14.337Z,38.97
2019-02-11T14:39:20.389Z,42.03
2019-02-11T14:42:26.321Z,40.83
2019-02-11T14:45:32.230Z,42.23
2019-02-11T14:48:38.143Z,36.73
2019-02-11T14:51:44.986Z,36.23
2019-02-11T14:54:50.890Z,37.53
2019-02-11T14:57:56.718Z,35.83
2019-02-11T15:01:02.507Z,36.47
2019-02-11T15:04:08.316Z,49.57
2019-02-11T15:07:14.046Z,37.67
2019-02-11T15:10:19.979Z,35.70
2019-02-11T15:13:25.742Z,37.43
2019-02-11T15:16:31.637Z,37.00
2019-02-11T15:19:37.409Z,35.93
2019-02-11T15:22:43.219Z,34.93
2019-02-11T15:25:48.985Z,36.30
2019-02-11T15:28:54.893Z,37.40
2019-02-11T15:32:00.667Z,34.80
2019-02-11T15:35:06.575Z,34.87
2019-02-11T15:38:12.368Z,35.63
2019-02-11T15:41:18.143Z,36.60
2019-02-11T15:44:23.900Z,41.23
2019-02-11T15:47:29.685Z,36.53
2019-02-11T15:50:35.688Z,36.53
2019-02-11T15:53:41.600Z,35.67
2019-02-11T15:56:47.419Z,44.87
2019-02-11T15:59:53.174Z,47.70
2019-02-11T16:02:58.940Z,45.53
2019-02-11T16:06:10.215Z,51.40
2019-02-11T16:09:12.454Z,44.57
2019-02-11T16:12:18.256Z,44.90
2019-02-11T16:15:24.126Z,47.47
2019-02-11T16:18:30.000Z,57.40
2019-02-11T16:21:35.773Z,43.77
2019-02-11T16:24:41.646Z,44.93
2019-02-11T16:27:47.555Z,44.63
2019-02-11T16:30:53.325Z,48.90
2019-02-11T16:33:59.143Z,54.63
2019-02-11T16:37:05.020Z,59.13
2019-02-11T16:40:13.604Z,64.43
2019-02-11T16:43:20.417Z,58.80
2019-02-11T16:46:26.194Z,61.37
2019-02-11T16:49:31.984Z,57.47
2019-02-11T16:52:37.882Z,72.77
2019-02-11T16:55:43.775Z,67.87
2019-02-11T16:58:49.662Z,100.03
2019-02-11T17:01:55.459Z,99.33
2019-02-11T17:05:01.241Z,75.57
2019-02-11T17:08:07.090Z,68.00
2019-02-11T17:11:12.862Z,90.13
2019-02-11T17:14:20.324Z,107.27
2019-02-11T17:17:26.119Z,122.10
2019-02-11T17:20:31.915Z,98.13
2019-02-11T17:23:37.823Z,80.97
2019-02-11T17:26:43.693Z,82.97
2019-02-11T17:29:49.644Z,80.23
2019-02-11T17:32:55.568Z,89.17
2019-02-11T17:36:01.371Z,98.47
2019-02-11T17:39:08.875Z,128.70
2019-02-11T17:42:14.898Z,90.93
2019-02-11T17:45:23.013Z,86.97
2019-02-11T17:48:28.904Z,74.87
2019-02-11T17:51:34.814Z,71.00
2019-02-11T17:54:40.647Z,59.83
2019-02-11T17:57:46.619Z,58.87
2019-02-11T18:00:56.205Z,56.67
2019-02-11T18:04:01.976Z,61.27
2019-02-11T18:07:08.331Z,56.60
2019-02-11T18:10:14.225Z,53.87
2019-02-11T18:13:20.004Z,50.27
2019-02-11T18:16:25.945Z,56.33
2019-02-11T18:19:31.759Z,51.17
2019-02-11T18:22:37.691Z,53.77
2019-02-11T18:25:43.525Z,52.60
2019-02-11T18:28:49.408Z,53.83
2019-02-11T18:31:55.228Z,62.83
2019-02-11T18:35:01.080Z,71.83
2019-02-11T18:38:06.926Z,69.17
2019-02-11T18:41:12.712Z,62.70
2019-02-11T18:44:18.697Z,65.50
2019-02-11T18:47:24.553Z,66.67
2019-02-11T18:50:30.430Z,66.60
2019-02-11T18:53:36.260Z,80.97
2019-02-11T18:56:42.156Z,78.23
2019-02-11T18:59:47.949Z,69.67
2019-02-11T19:02:54.127Z,70.00
2019-02-11T19:06:00.046Z,74.77
2019-02-11T19:09:08.732Z,68.53
2019-02-11T19:12:14.887Z,72.40
2019-02-11T19:15:20.861Z,74.00
2019-02-11T19:18:26.711Z,73.80
2019-02-11T19:21:33.458Z,72.97
2019-02-11T19:24:39.296Z,70.03
2019-02-11T19:27:45.076Z,71.30
2019-02-11T19:30:50.954Z,82.80
2019-02-11T19:33:56.813Z,82.20
2019-02-11T19:37:02.627Z,91.93
2019-02-11T19:40:10.225Z,96.60
2019-02-11T19:43:16.055Z,95.53
2019-02-11T19:46:22.221Z,94.63
2019-02-11T19:49:28.057Z,94.30
2019-02-11T19:52:33.952Z,94.90
2019-02-11T19:55:39.830Z,110.43
2019-02-11T19:58:45.709Z,103.80
2019-02-11T20:01:51.483Z,108.30
2019-02-11T20:04:57.284Z,107.97
2019-02-11T20:08:03.063Z,100.27
2019-02-11T20:11:08.936Z,105.23
2019-02-11T20:14:14.769Z,87.53
2019-02-11T20:17:20.523Z,94.23
2019-02-11T20:20:26.428Z,80.93
2019-02-11T20:23:32.177Z,80.27
2019-02-11T20:26:37.936Z,83.47
2019-02-11T20:29:43.700Z,83.87
2019-02-11T20:32:49.611Z,84.40
2019-02-11T20:35:55.431Z,98.73
2019-02-11T20:39:01.208Z,94.50
2019-02-11T20:42:08.615Z,91.43
2019-02-11T20:45:17.169Z,93.30
2019-02-11T20:48:22.978Z,92.20
2019-02-11T20:51:28.779Z,83.27
2019-02-11T20:54:34.569Z,81.30
2019-02-11T20:57:40.495Z,82.77
2019-02-11T21:00:46.363Z,81.20
2019-02-11T21:03:52.144Z,78.93
2019-02-11T21:06:57.918Z,74.13
2019-02-11T21:10:03.949Z,77.90
2019-02-11T21:13:09.825Z,76.83
2019-02-11T21:16:15.612Z,71.43
2019-02-11T21:19:21.391Z,74.47
2019-02-11T21:22:27.556Z,70.93
2019-02-11T21:25:33.431Z,69.10
2019-02-11T21:28:39.223Z,69.67
2019-02-11T21:31:45.146Z,63.17
2019-02-11T21:34:50.924Z,57.40
2019-02-11T21:37:56.709Z,60.90
2019-02-11T21:41:03.522Z,64.17
2019-02-11T21:44:09.306Z,65.93
2019-02-11T21:47:15.107Z,74.10
2019-02-11T21:50:26.276Z,67.73
2019-02-11T21:53:28.654Z,68.57
2019-02-11T21:56:34.409Z,65.40
2019-02-11T21:59:40.304Z,63.47
2019-02-11T22:02:46.132Z,65.67
2019-02-11T22:05:51.889Z,59.77
2019-02-11T22:08:57.735Z,62.40
2019-02-11T22:12:03.514Z,68.13
2019-02-11T22:15:10.041Z,65.80
2019-02-11T22:18:15.820Z,65.57
2019-02-11T22:21:21.639Z,59.47
2019-02-11T22:24:27.431Z,62.83
2019-02-11T22:27:33.300Z,61.40
2019-02-11T22:30:40.096Z,63.40
2019-02-11T22:33:45.852Z,61.13
2019-02-11T22:36:51.640Z,63.43
2019-02-11T22:39:57.515Z,63.67
2019-02-11T22:43:03.350Z,64.27
2019-02-11T22:46:09.134Z,61.83
2019-02-11T22:49:14.928Z,65.97
2019-02-11T22:52:20.689Z,61.70
2019-02-11T22:55:26.483Z,64.67
2019-02-11T22:58:33.236Z,64.60
2019-02-11T23:01:39.121Z,67.30
2019-02-11T23:04:44.899Z,69.97
2019-02-11T23:07:50.661Z,68.20
2019-02-11T23:10:56.417Z,70.00
2019-02-11T23:14:02.248Z,69.53
2019-02-11T23:17:08.002Z,67.77
2019-02-11T23:20:14.011Z,66.13
2019-02-11T23:23:19.781Z,62.37
2019-02-11T23:26:25.613Z,64.57
2019-02-11T23:29:31.378Z,65.43
2019-02-11T23:32:37.149Z,67.00
2019-02-11T23:35:43.036Z,68.17
2019-02-11T23:38:48.811Z,68.70
2019-02-11T23:41:54.569Z,69.40
2019-02-11T23:45:00.353Z,70.33
2019-02-11T23:48:06.243Z,63.90
2019-02-11T23:51:12.036Z,65.00
2019-02-11T23:54:17.812Z,58.13
2019-02-11T23:57:23.646Z,62.37
